Time;durP1;ratioP1;P1;durP2;ratioP2;P2;SDS_P1;SDS_P2;PMS_P1;PMS_P2;Temp;Humidity;BMP_temperature;BMP_pressure;BME280_temperature;BME280_humidity;BME280_pressure;Samples;Min_cycle;Max_cycle;Signal;HPM_P1;HPM_P2
2023/07/26 00:02:17;;;;;;;0.15;0.10;;;13.30;99.90;;;;;;5009956;28;20040;-79
2023/07/26 00:04:43;;;;;;;0.30;0.10;;;13.30;99.90;;;;;;4993732;28;20065;-80
2023/07/26 00:07:09;;;;;;;0.45;0.10;;;13.30;99.90;;;;;;5005625;28;20040;-80
2023/07/26 00:09:35;;;;;;;0.60;0.20;;;13.30;99.90;;;;;;4989428;28;20183;-80
2023/07/26 00:12:01;;;;;;;0.55;0.20;;;13.30;99.90;;;;;;4982438;28;20050;-80
2023/07/26 00:14:27;;;;;;;0.17;0.10;;;13.30;99.90;;;;;;4982685;28;20454;-80
2023/07/26 00:16:52;;;;;;;0.20;0.10;;;13.30;99.90;;;;;;4983202;28;20041;-80
2023/07/26 00:19:19;;;;;;;0.20;0.10;;;13.30;99.90;;;;;;4999009;28;20084;-80
2023/07/26 00:21:46;;;;;;;0.50;0.08;;;13.30;99.90;;;;;;4992530;28;20046;-80
2023/07/26 00:24:12;;;;;;;0.63;0.15;;;13.30;99.90;;;;;;4999246;28;20041;-80
2023/07/26 00:26:37;;;;;;;0.28;0.10;;;13.30;99.90;;;;;;4976824;28;20045;-80
2023/07/26 00:29:03;;;;;;;0.80;0.30;;;13.30;99.90;;;;;;4999316;28;20041;-80
2023/07/26 00:31:29;;;;;;;0.20;0.10;;;13.30;99.90;;;;;;4998570;28;20034;-80
2023/07/26 00:33:55;;;;;;;0.13;0.10;;;13.30;99.90;;;;;;4983634;28;20068;-80
2023/07/26 00:36:20;;;;;;;0.30;0.17;;;13.30;99.90;;;;;;4982811;28;20054;-80
2023/07/26 00:38:46;;;;;;;3.38;0.22;;;13.30;99.90;;;;;;5000833;28;20038;-80
2023/07/26 00:41:12;;;;;;;0.55;0.20;;;13.20;99.90;;;;;;4997447;28;20042;-80
2023/07/26 00:43:38;;;;;;;0.25;0.10;;;13.20;99.90;;;;;;4999109;28;20064;-80
2023/07/26 00:46:06;;;;;;;0.10;0.10;;;13.20;99.90;;;;;;4998636;28;20033;-80
2023/07/26 00:48:33;;;;;;;0.40;0.10;;;13.20;99.90;;;;;;4999120;28;20065;-80
2023/07/26 00:51:01;;;;;;;0.00;0.00;;;13.20;99.90;;;;;;4986145;28;20510;-80
2023/07/26 00:53:27;;;;;;;0.17;0.10;;;13.20;99.90;;;;;;4987613;28;20129;-80
2023/07/26 00:55:53;;;;;;;0.08;0.05;;;13.10;99.90;;;;;;4995309;28;20423;-80
2023/07/26 00:58:20;;;;;;;0.05;0.00;;;13.10;99.90;;;;;;4999548;28;20061;-80
2023/07/26 01:00:47;;;;;;;0.20;0.03;;;13.10;99.90;;;;;;4997811;28;20053;-80
2023/07/26 01:03:14;;;;;;;0.30;0.20;;;13.00;99.90;;;;;;4998665;28;20084;-80
2023/07/26 01:05:55;;;;;;;0.90;0.32;;;13.00;99.90;;;;;;4982358;28;20045;-80
2023/07/26 01:08:31;;;;;;;0.43;0.25;;;13.00;99.90;;;;;;4981666;28;20057;-80
2023/07/26 01:11:02;;;;;;;0.47;0.13;;;12.90;99.90;;;;;;4977789;28;20046;-80
2023/07/26 01:13:44;;;;;;;0.00;0.00;;;12.90;99.90;;;;;;4962289;28;20038;-80
2023/07/26 01:16:10;;;;;;;0.32;0.13;;;12.90;99.90;;;;;;4979689;28;20042;-80
2023/07/26 01:18:37;;;;;;;1.50;0.43;;;12.80;99.90;;;;;;4979028;28;20100;-80
2023/07/26 01:21:02;;;;;;;0.10;0.10;;;12.80;99.90;;;;;;4979131;28;20059;-80
2023/07/26 01:23:31;;;;;;;0.00;0.00;;;12.80;99.90;;;;;;4978514;28;20102;-80
2023/07/26 01:25:57;;;;;;;0.20;0.10;;;12.80;99.90;;;;;;4976701;28;20085;-80
2023/07/26 01:28:23;;;;;;;0.17;0.10;;;12.70;99.90;;;;;;4978251;28;20569;-80
2023/07/26 01:30:49;;;;;;;0.95;0.30;;;12.70;99.90;;;;;;4962645;28;20461;-80
2023/07/26 01:33:17;;;;;;;0.45;0.28;;;12.60;99.90;;;;;;4978492;28;20081;-80
2023/07/26 01:35:47;;;;;;;0.10;0.10;;;12.60;99.90;;;;;;4963420;28;20453;-80
2023/07/26 01:38:14;;;;;;;0.45;0.10;;;12.50;99.90;;;;;;4978600;28;20042;-80
2023/07/26 01:40:41;;;;;;;0.25;0.10;;;12.50;99.90;;;;;;4960097;28;20061;-80
2023/07/26 01:43:07;;;;;;;0.63;0.20;;;12.50;99.90;;;;;;4978007;28;20047;-80
2023/07/26 01:45:33;;;;;;;0.40;0.20;;;12.40;99.90;;;;;;4957998;28;20076;-80
2023/07/26 01:47:59;;;;;;;0.90;0.20;;;12.30;99.90;;;;;;4975598;28;20062;-80
2023/07/26 01:50:25;;;;;;;0.20;0.17;;;12.30;99.90;;;;;;4975715;28;20048;-80
2023/07/26 01:52:51;;;;;;;0.30;0.10;;;12.30;99.90;;;;;;4962616;28;20050;-80
2023/07/26 01:55:17;;;;;;;0.32;0.30;;;12.20;99.90;;;;;;4976774;28;20088;-80
2023/07/26 01:57:43;;;;;;;0.30;0.20;;;12.20;99.90;;;;;;4961348;28;20495;-80
2023/07/26 02:00:09;;;;;;;0.38;0.10;;;12.10;99.90;;;;;;4960956;28;20406;-80
2023/07/26 02:02:35;;;;;;;0.40;0.05;;;12.00;99.90;;;;;;4977644;28;20042;-80
2023/07/26 02:05:01;;;;;;;0.10;0.10;;;12.00;99.90;;;;;;4976891;28;20046;-80
2023/07/26 02:07:27;;;;;;;1.65;0.40;;;11.90;99.90;;;;;;4962081;28;20081;-80
2023/07/26 02:09:53;;;;;;;0.30;0.13;;;12.00;99.90;;;;;;4973504;28;20057;-80
2023/07/26 02:12:18;;;;;;;1.23;0.15;;;11.90;99.90;;;;;;4996794;28;20486;-80
2023/07/26 02:14:44;;;;;;;0.70;0.20;;;11.90;99.90;;;;;;4980238;28;20045;-80
2023/07/26 02:17:10;;;;;;;0.30;0.20;;;11.90;99.90;;;;;;4996106;28;20046;-80
2023/07/26 02:19:36;;;;;;;0.25;0.10;;;11.80;99.90;;;;;;4975884;28;20045;-80
2023/07/26 02:22:02;;;;;;;0.10;0.10;;;11.80;99.90;;;;;;4980697;28;20366;-80
2023/07/26 02:24:27;;;;;;;0.60;0.10;;;11.70;99.90;;;;;;4985016;28;20125;-80
2023/07/26 02:26:53;;;;;;;0.38;0.10;;;11.70;99.90;;;;;;4996447;28;20029;-80
2023/07/26 02:29:19;;;;;;;1.00;0.15;;;11.70;99.90;;;;;;4996303;28;20038;-80
2023/07/26 02:31:44;;;;;;;0.52;0.20;;;11.70;99.90;;;;;;4996648;28;20128;-80
2023/07/26 02:34:10;;;;;;;1.95;0.25;;;11.60;99.90;;;;;;5013187;28;20045;-80
2023/07/26 02:36:36;;;;;;;0.10;0.00;;;11.60;99.90;;;;;;4995804;28;20042;-80
2023/07/26 02:39:02;;;;;;;0.45;0.28;;;11.60;99.90;;;;;;4980086;28;20057;-80
2023/07/26 02:41:27;;;;;;;0.10;0.10;;;11.60;99.90;;;;;;4979600;28;20037;-80
2023/07/26 02:43:53;;;;;;;0.60;0.30;;;11.50;99.90;;;;;;4980444;28;20462;-80
2023/07/26 02:46:19;;;;;;;0.95;0.20;;;11.50;99.90;;;;;;4996115;28;20041;-80
2023/07/26 02:48:45;;;;;;;0.20;0.10;;;11.50;99.90;;;;;;4996636;28;20490;-80
2023/07/26 02:51:10;;;;;;;0.77;0.40;;;11.50;99.90;;;;;;4994720;28;20505;-80
2023/07/26 02:53:37;;;;;;;0.35;0.25;;;11.40;99.90;;;;;;4996936;28;20045;-80
2023/07/26 02:56:03;;;;;;;0.28;0.17;;;11.40;99.90;;;;;;4995452;28;20049;-80
2023/07/26 02:58:29;;;;;;;0.17;0.10;;;11.40;99.90;;;;;;4995549;28;20038;-80
2023/07/26 03:00:55;;;;;;;3.05;0.30;;;11.40;99.90;;;;;;4979717;28;20413;-80
2023/07/26 03:03:20;;;;;;;0.43;0.30;;;11.30;99.90;;;;;;4996243;28;20524;-80
2023/07/26 03:05:46;;;;;;;0.30;0.20;;;11.30;99.90;;;;;;4979704;28;20232;-80
2023/07/26 03:08:13;;;;;;;0.55;0.20;;;11.30;99.90;;;;;;4997501;28;20532;-80
2023/07/26 03:10:39;;;;;;;0.20;0.10;;;11.20;99.90;;;;;;4994658;28;20555;-80
2023/07/26 03:13:05;;;;;;;0.73;0.30;;;11.30;99.90;;;;;;4994872;28;20550;-80
2023/07/26 03:15:31;;;;;;;1.10;0.50;;;11.20;99.90;;;;;;4978997;28;20079;-80
2023/07/26 03:17:57;;;;;;;0.95;0.30;;;11.20;99.90;;;;;;4996481;28;20069;-80
2023/07/26 03:20:22;;;;;;;0.68;0.28;;;11.20;99.90;;;;;;4979969;28;20125;-80
2023/07/26 03:22:48;;;;;;;0.55;0.30;;;11.20;99.90;;;;;;4979071;28;20506;-80
2023/07/26 03:25:17;;;;;;;0.50;0.20;;;11.20;99.90;;;;;;4980469;28;20068;-80
2023/07/26 03:27:44;;;;;;;1.02;0.30;;;11.20;99.90;;;;;;4995550;28;20088;-80
2023/07/26 03:30:10;;;;;;;0.50;0.30;;;11.30;99.90;;;;;;4994227;28;20046;-80
2023/07/26 03:32:36;;;;;;;0.77;0.30;;;11.30;99.90;;;;;;5002041;28;20050;-80
2023/07/26 03:35:01;;;;;;;0.30;0.25;;;11.30;99.90;;;;;;4996007;28;20452;-80
2023/07/26 03:37:27;;;;;;;0.32;0.10;;;11.30;99.90;;;;;;4995619;28;20053;-80
2023/07/26 03:39:53;;;;;;;0.45;0.38;;;11.40;99.90;;;;;;4978695;28;20038;-81
2023/07/26 03:42:18;;;;;;;1.02;0.20;;;11.40;99.90;;;;;;4994417;28;20042;-80
2023/07/26 03:44:44;;;;;;;1.10;0.43;;;11.50;99.90;;;;;;4996918;28;20042;-80
2023/07/26 03:47:10;;;;;;;0.47;0.20;;;11.40;99.90;;;;;;4979763;28;20406;-80
2023/07/26 03:49:36;;;;;;;0.40;0.30;;;11.40;99.90;;;;;;4980275;28;20050;-80
2023/07/26 03:52:02;;;;;;;0.22;0.13;;;11.40;99.90;;;;;;4979958;28;20550;-80
2023/07/26 03:54:27;;;;;;;1.13;0.30;;;11.50;99.90;;;;;;4976290;28;20073;-80
2023/07/26 03:56:53;;;;;;;1.25;0.32;;;11.50;99.90;;;;;;4978313;28;20092;-80
2023/07/26 03:59:19;;;;;;;0.60;0.30;;;11.40;99.90;;;;;;4981085;28;20049;-80
2023/07/26 04:01:45;;;;;;;0.63;0.30;;;11.40;99.90;;;;;;4979122;28;20049;-80
2023/07/26 04:04:10;;;;;;;0.28;0.17;;;11.40;99.90;;;;;;4979625;28;20045;-80
2023/07/26 04:06:36;;;;;;;0.68;0.30;;;11.50;99.90;;;;;;4995541;28;20501;-80
2023/07/26 04:09:02;;;;;;;0.32;0.13;;;11.50;99.90;;;;;;4999971;28;20580;-80
2023/07/26 04:11:28;;;;;;;0.98;0.40;;;11.60;99.90;;;;;;4992516;28;20048;-80
2023/07/26 04:13:54;;;;;;;0.50;0.30;;;11.70;99.90;;;;;;4978167;28;20042;-80
2023/07/26 04:16:20;;;;;;;0.70;0.30;;;11.70;99.90;;;;;;4979396;28;20044;-80
2023/07/26 04:18:47;;;;;;;0.90;0.35;;;11.80;99.90;;;;;;4994486;28;20037;-80
2023/07/26 04:21:15;;;;;;;0.60;0.28;;;11.90;99.90;;;;;;4979656;28;20046;-80
2023/07/26 04:23:43;;;;;;;0.30;0.20;;;11.90;99.90;;;;;;4973393;28;20126;-80
2023/07/26 04:26:09;;;;;;;1.02;0.40;;;12.00;99.90;;;;;;4993914;28;20038;-80
2023/07/26 04:28:35;;;;;;;0.32;0.20;;;12.00;99.90;;;;;;4995365;28;20061;-80
2023/07/26 04:31:03;;;;;;;0.25;0.20;;;12.10;99.90;;;;;;4988585;28;20473;-81
2023/07/26 04:33:29;;;;;;;0.43;0.38;;;12.10;99.90;;;;;;4978964;28;20046;-82
2023/07/26 04:35:57;;;;;;;0.68;0.30;;;12.10;99.90;;;;;;4993588;28;20541;-81
2023/07/26 04:38:26;;;;;;;0.30;0.17;;;12.20;99.90;;;;;;4977426;28;20038;-81
2023/07/26 04:40:52;;;;;;;0.60;0.25;;;12.20;99.90;;;;;;4976949;28;20132;-81
2023/07/26 04:43:20;;;;;;;0.25;0.20;;;12.20;99.90;;;;;;4990221;28;20125;-81
2023/07/26 04:45:48;;;;;;;0.68;0.28;;;12.20;99.90;;;;;;4976238;28;20060;-82
2023/07/26 04:48:14;;;;;;;0.40;0.10;;;12.20;99.90;;;;;;4992434;28;20045;-82
2023/07/26 04:50:40;;;;;;;2.17;0.30;;;12.20;99.90;;;;;;4993803;28;20050;-83
2023/07/26 04:53:05;;;;;;;1.55;0.20;;;12.20;99.90;;;;;;4985331;28;20092;-83
2023/07/26 04:55:32;;;;;;;0.40;0.15;;;12.30;99.90;;;;;;5003546;28;20045;-83
2023/07/26 04:57:57;;;;;;;0.43;0.22;;;12.20;99.90;;;;;;5004718;28;20078;-82
2023/07/26 05:00:23;;;;;;;0.22;0.20;;;12.30;99.90;;;;;;5003994;28;20045;-82
2023/07/26 05:02:49;;;;;;;0.40;0.20;;;12.30;99.90;;;;;;5003482;28;20497;-82
2023/07/26 05:05:15;;;;;;;0.22;0.20;;;12.20;99.90;;;;;;5002699;28;20037;-82
2023/07/26 05:07:40;;;;;;;0.47;0.15;;;12.30;99.90;;;;;;5003027;28;20588;-82
2023/07/26 05:10:07;;;;;;;0.35;0.28;;;12.40;99.90;;;;;;4983765;28;20053;-82
2023/07/26 05:12:33;;;;;;;0.10;0.10;;;12.50;99.90;;;;;;4985987;28;20512;-82
2023/07/26 05:14:58;;;;;;;0.75;0.38;;;12.50;99.90;;;;;;4985236;28;20109;-82
2023/07/26 05:17:24;;;;;;;0.38;0.25;;;12.60;99.90;;;;;;5002739;28;20053;-82
2023/07/26 05:19:50;;;;;;;0.82;0.40;;;12.70;99.90;;;;;;4986512;28;20049;-82
2023/07/26 05:22:16;;;;;;;0.22;0.10;;;12.80;99.90;;;;;;5019539;28;20042;-82
2023/07/26 05:24:42;;;;;;;0.10;0.10;;;12.90;99.90;;;;;;4986212;28;20044;-83
2023/07/26 05:27:07;;;;;;;2.17;0.20;;;12.90;99.90;;;;;;4985665;28;20041;-83
2023/07/26 05:29:33;;;;;;;0.90;0.40;;;13.00;99.90;;;;;;4985722;28;20042;-83
2023/07/26 05:32:02;;;;;;;0.47;0.30;;;13.00;99.90;;;;;;4985634;28;20117;-83
2023/07/26 05:34:28;;;;;;;0.25;0.10;;;13.20;99.90;;;;;;4984667;28;20053;-83
2023/07/26 05:36:53;;;;;;;0.75;0.20;;;13.10;99.90;;;;;;5001920;28;20034;-83
2023/07/26 05:39:19;;;;;;;0.93;0.30;;;13.20;99.90;;;;;;4986610;28;20066;-83
2023/07/26 05:41:45;;;;;;;0.55;0.30;;;13.20;99.90;;;;;;5001251;28;20050;-83
2023/07/26 05:44:11;;;;;;;0.50;0.30;;;13.30;99.90;;;;;;4985059;28;20041;-84
2023/07/26 05:46:37;;;;;;;2.13;0.40;;;13.30;99.90;;;;;;4997618;28;20041;-84
2023/07/26 05:49:02;;;;;;;0.35;0.10;;;13.40;99.90;;;;;;4999665;28;20049;-84
2023/07/26 05:51:28;;;;;;;0.45;0.30;;;13.30;99.90;;;;;;4985009;28;20046;-84
2023/07/26 05:53:54;;;;;;;0.45;0.20;;;13.30;99.90;;;;;;4984512;28;20044;-83
2023/07/26 05:56:19;;;;;;;0.17;0.17;;;13.30;99.90;;;;;;5001196;28;20115;-83
2023/07/26 05:58:45;;;;;;;0.22;0.10;;;13.30;99.90;;;;;;5001187;28;20046;-83
2023/07/26 06:01:11;;;;;;;0.17;0.10;;;13.30;99.90;;;;;;5000766;28;20054;-82
2023/07/26 06:03:37;;;;;;;0.65;0.30;;;13.30;99.90;;;;;;5000255;28;20072;-83
2023/07/26 06:06:02;;;;;;;0.60;0.10;;;13.40;99.90;;;;;;4999762;28;20545;-82
2023/07/26 06:08:28;;;;;;;1.15;0.40;;;13.30;99.90;;;;;;5000525;28;20099;-83
2023/07/26 06:10:54;;;;;;;0.90;0.30;;;13.30;99.90;;;;;;5015718;28;20505;-82
2023/07/26 06:13:20;;;;;;;0.50;0.20;;;13.30;99.90;;;;;;5017851;28;20045;-82
2023/07/26 06:15:46;;;;;;;0.38;0.22;;;13.30;99.90;;;;;;4998837;28;20052;-82
2023/07/26 06:18:11;;;;;;;1.70;0.43;;;13.40;99.90;;;;;;5000378;28;20050;-82
2023/07/26 06:20:37;;;;;;;0.68;0.32;;;13.50;99.90;;;;;;5000238;28;20048;-82
2023/07/26 06:23:03;;;;;;;0.88;0.47;;;13.60;99.90;;;;;;4982900;28;20073;-82
2023/07/26 06:25:29;;;;;;;0.57;0.35;;;13.70;99.90;;;;;;4998008;28;20128;-82
2023/07/26 06:27:54;;;;;;;0.32;0.15;;;13.70;99.90;;;;;;4983202;28;20092;-81
2023/07/26 06:30:20;;;;;;;1.15;0.20;;;13.80;99.90;;;;;;4984531;28;20402;-81
2023/07/26 06:32:49;;;;;;;1.70;0.40;;;13.90;99.90;;;;;;4982894;28;20236;-81
2023/07/26 06:35:15;;;;;;;4.57;0.63;;;13.90;99.90;;;;;;4992606;28;20050;-81
2023/07/26 06:37:41;;;;;;;0.38;0.25;;;14.00;99.90;;;;;;4981554;28;20053;-81
2023/07/26 06:40:07;;;;;;;1.55;0.22;;;14.10;99.90;;;;;;5000850;28;20049;-82
2023/07/26 06:42:33;;;;;;;0.40;0.20;;;14.00;99.90;;;;;;4981746;28;20049;-81
2023/07/26 06:44:59;;;;;;;0.55;0.22;;;14.10;99.90;;;;;;4998718;28;20034;-81
2023/07/26 06:47:24;;;;;;;0.50;0.20;;;14.10;99.90;;;;;;4984479;28;20087;-81
2023/07/26 06:49:50;;;;;;;0.60;0.40;;;14.20;99.90;;;;;;4998944;28;20478;-81
2023/07/26 06:52:16;;;;;;;0.30;0.20;;;14.20;99.90;;;;;;4980580;28;20034;-81
2023/07/26 06:54:42;;;;;;;0.47;0.28;;;14.30;99.90;;;;;;5001078;28;20073;-81
2023/07/26 06:57:09;;;;;;;0.80;0.20;;;14.40;99.90;;;;;;4984527;28;20037;-82
2023/07/26 06:59:35;;;;;;;0.73;0.40;;;14.50;99.90;;;;;;4983394;28;20034;-83
2023/07/26 07:02:03;;;;;;;1.20;0.30;;;14.50;99.90;;;;;;4978950;28;20099;-84
2023/07/26 07:04:28;;;;;;;0.65;0.30;;;14.40;99.90;;;;;;4982581;28;20339;-83
2023/07/26 07:06:54;;;;;;;0.30;0.20;;;14.40;99.90;;;;;;4983271;28;20041;-83
2023/07/26 07:09:20;;;;;;;0.77;0.40;;;14.40;99.90;;;;;;4983895;28;20050;-83
2023/07/26 07:11:46;;;;;;;0.60;0.30;;;14.30;99.90;;;;;;4979840;28;20048;-84
2023/07/26 07:14:11;;;;;;;0.40;0.25;;;14.30;99.90;;;;;;4995809;28;20050;-84
2023/07/26 07:16:38;;;;;;;0.20;0.20;;;14.20;99.90;;;;;;5011632;28;20493;-84
2023/07/26 07:19:04;;;;;;;0.75;0.40;;;14.10;99.90;;;;;;4986114;28;20093;-84
2023/07/26 07:21:30;;;;;;;1.20;0.50;;;14.10;99.90;;;;;;4993693;28;20120;-84
2023/07/26 07:23:56;;;;;;;0.22;0.20;;;14.10;99.90;;;;;;4994528;28;20069;-84
2023/07/26 07:26:21;;;;;;;0.95;0.57;;;14.00;99.90;;;;;;4993415;28;20030;-85
2023/07/26 07:28:47;;;;;;;1.05;0.50;;;14.00;99.90;;;;;;4995106;28;20116;-85
2023/07/26 07:31:13;;;;;;;0.57;0.20;;;13.90;99.90;;;;;;4993724;28;20501;-85
2023/07/26 07:33:39;;;;;;;0.38;0.28;;;13.80;99.90;;;;;;4977003;28;20034;-85
2023/07/26 07:36:04;;;;;;;1.42;0.47;;;13.70;99.90;;;;;;4976516;28;20057;-86
2023/07/26 07:38:31;;;;;;;0.85;0.40;;;13.60;99.90;;;;;;4975976;28;20084;-84
2023/07/26 07:40:56;;;;;;;0.40;0.30;;;13.50;99.90;;;;;;4992035;28;20069;-84
2023/07/26 07:43:22;;;;;;;0.50;0.20;;;13.50;99.90;;;;;;4977019;28;20069;-85
2023/07/26 07:45:48;;;;;;;0.93;0.20;;;13.40;99.90;;;;;;4992674;28;20038;-85
2023/07/26 07:48:14;;;;;;;0.68;0.30;;;13.40;99.90;;;;;;4992936;28;20044;-85
2023/07/26 07:50:40;;;;;;;0.68;0.30;;;13.40;99.90;;;;;;5009354;28;20045;-85
2023/07/26 07:53:05;;;;;;;1.02;0.40;;;13.40;99.90;;;;;;4992417;28;20046;-84
2023/07/26 07:55:31;;;;;;;1.13;0.57;;;13.40;99.90;;;;;;4975034;28;20050;-85
2023/07/26 07:58:01;;;;;;;0.90;0.50;;;13.40;99.90;;;;;;4993257;28;20462;-84
2023/07/26 08:00:27;;;;;;;0.65;0.35;;;13.40;99.90;;;;;;4977897;28;20406;-84
2023/07/26 08:02:53;;;;;;;0.95;0.47;;;13.40;99.90;;;;;;4993779;28;20038;-84
2023/07/26 08:05:19;;;;;;;0.70;0.30;;;13.40;99.90;;;;;;4979450;28;20034;-83
2023/07/26 08:07:44;;;;;;;0.57;0.30;;;13.50;99.90;;;;;;4995220;28;20250;-83
2023/07/26 08:10:10;;;;;;;0.85;0.47;;;13.50;99.90;;;;;;4995804;28;20415;-83
2023/07/26 08:12:36;;;;;;;0.57;0.30;;;13.50;99.90;;;;;;4994794;28;20050;-83
2023/07/26 08:15:02;;;;;;;0.93;0.50;;;13.50;99.90;;;;;;4977783;28;20617;-83
2023/07/26 08:17:28;;;;;;;1.65;0.60;;;13.60;99.90;;;;;;4995844;28;20042;-83
2023/07/26 08:19:53;;;;;;;0.68;0.30;;;13.60;99.90;;;;;;4979077;28;20402;-83
2023/07/26 08:22:19;;;;;;;1.90;0.30;;;13.70;99.90;;;;;;4996148;28;20708;-83
2023/07/26 08:24:45;;;;;;;0.22;0.13;;;13.70;99.90;;;;;;4979531;28;20474;-83
2023/07/26 08:27:11;;;;;;;0.10;0.10;;;13.80;99.90;;;;;;4980777;28;20517;-83
2023/07/26 08:29:36;;;;;;;0.75;0.50;;;13.90;99.90;;;;;;5016058;28;20533;-82
2023/07/26 08:32:03;;;;;;;0.90;0.28;;;14.00;99.90;;;;;;5000356;28;20112;-83
2023/07/26 08:34:29;;;;;;;0.63;0.20;;;14.00;99.90;;;;;;4984243;28;20437;-83
2023/07/26 08:36:55;;;;;;;0.43;0.20;;;14.20;99.90;;;;;;4998828;28;20046;-83
2023/07/26 08:39:20;;;;;;;0.90;0.20;;;14.40;99.90;;;;;;4999723;28;20517;-82
2023/07/26 08:41:46;;;;;;;0.30;0.20;;;14.60;99.90;;;;;;4982548;28;20133;-82
2023/07/26 08:44:13;;;;;;;0.77;0.20;;;14.90;99.90;;;;;;4981942;28;20049;-83
2023/07/26 08:46:40;;;;;;;0.32;0.20;;;15.30;99.90;;;;;;5001584;28;20041;-82
2023/07/26 08:49:07;;;;;;;0.50;0.45;;;15.60;99.90;;;;;;5000498;28;20448;-82
2023/07/26 08:51:34;;;;;;;0.15;0.15;;;15.90;99.90;;;;;;4983667;28;20049;-83
2023/07/26 08:54:00;;;;;;;0.30;0.10;;;16.40;99.90;;;;;;4996149;28;20133;-84
2023/07/26 08:56:29;;;;;;;0.00;0.00;;;16.70;99.90;;;;;;5001223;28;20077;-84
2023/07/26 08:58:55;;;;;;;0.20;0.17;;;17.00;99.90;;;;;;4985072;28;20069;-83
2023/07/26 09:01:22;;;;;;;0.55;0.20;;;17.20;99.90;;;;;;5001139;28;20057;-84
2023/07/26 09:03:48;;;;;;;0.13;0.10;;;17.20;99.90;;;;;;4978861;28;20097;-84
2023/07/26 09:06:14;;;;;;;0.30;0.10;;;17.30;99.90;;;;;;5001506;28;20278;-83
2023/07/26 09:08:43;;;;;;;0.10;0.08;;;17.30;99.90;;;;;;5001116;28;20552;-83
2023/07/26 09:11:27;;;;;;;0.93;0.17;;;17.30;99.90;;;;;;5001364;28;20054;-83
2023/07/26 09:13:58;;;;;;;0.35;0.03;;;17.70;99.90;;;;;;5000841;28;20063;-83
2023/07/26 09:16:29;;;;;;;0.40;0.20;;;18.10;99.90;;;;;;4984574;28;20033;-82
2023/07/26 09:19:04;;;;;;;0.47;0.20;;;18.40;99.90;;;;;;4984826;28;20045;-83
2023/07/26 09:21:33;;;;;;;0.80;0.20;;;18.60;99.90;;;;;;4993776;28;20070;-83
2023/07/26 09:24:03;;;;;;;0.40;0.25;;;18.80;99.90;;;;;;4985566;28;20041;-82
2023/07/26 09:26:42;;;;;;;0.47;0.20;;;18.80;99.90;;;;;;4972855;28;20459;-82
2023/07/26 09:29:11;;;;;;;0.10;0.10;;;18.60;99.90;;;;;;4985965;28;20057;-82
2023/07/26 09:31:38;;;;;;;0.57;0.30;;;18.40;99.90;;;;;;4985979;28;20107;-82
2023/07/26 09:34:08;;;;;;;0.45;0.10;;;18.40;99.90;;;;;;5002124;28;20045;-82
2023/07/26 09:36:44;;;;;;;0.10;0.10;;;18.40;99.90;;;;;;5002557;28;20034;-83
2023/07/26 09:39:12;;;;;;;0.30;0.20;;;18.50;99.90;;;;;;5000637;28;20076;-82
2023/07/26 09:41:38;;;;;;;0.35;0.15;;;18.70;99.90;;;;;;5000908;28;20473;-81
2023/07/26 09:44:13;;;;;;;0.25;0.15;;;18.60;99.90;;;;;;5003642;28;20041;-84
2023/07/26 09:46:52;;;;;;;0.63;0.20;;;18.30;99.90;;;;;;5002568;28;20046;-82
2023/07/26 09:49:22;;;;;;;0.32;0.20;;;17.90;99.90;;;;;;4998200;28;20044;-83
2023/07/26 09:51:53;;;;;;;0.20;0.10;;;17.50;99.90;;;;;;4984481;28;20125;-82
2023/07/26 09:54:46;;;;;;;0.50;0.20;;;17.20;99.90;;;;;;5002009;28;20105;-82
2023/07/26 09:57:13;;;;;;;0.20;0.10;;;17.00;99.90;;;;;;4982255;28;20145;-82
2023/07/26 09:59:40;;;;;;;0.80;0.20;;;17.00;99.90;;;;;;5001232;28;20038;-81
2023/07/26 10:02:11;;;;;;;0.20;0.20;;;17.00;99.90;;;;;;4984885;28;20073;-81
2023/07/26 10:04:51;;;;;;;0.22;0.13;;;17.10;99.90;;;;;;4985254;28;20445;-82
2023/07/26 10:07:17;;;;;;;0.43;0.10;;;17.40;99.90;;;;;;4982313;28;20041;-81
2023/07/26 10:09:45;;;;;;;0.15;0.08;;;18.10;99.90;;;;;;4999812;28;20042;-82
2023/07/26 10:12:13;;;;;;;0.40;0.15;;;18.60;99.90;;;;;;5000032;28;20057;-82
2023/07/26 10:14:39;;;;;;;0.08;0.00;;;18.80;99.90;;;;;;5001679;28;20498;-82
2023/07/26 10:17:06;;;;;;;0.10;0.10;;;19.00;99.90;;;;;;5011724;28;20033;-83
2023/07/26 10:19:32;;;;;;;0.13;0.10;;;19.10;99.90;;;;;;5019525;28;20092;-83
2023/07/26 10:21:58;;;;;;;0.10;0.10;;;19.20;99.90;;;;;;5003094;28;20075;-83
2023/07/26 10:24:26;;;;;;;0.40;0.10;;;19.30;99.90;;;;;;5019643;28;20037;-84
2023/07/26 10:26:56;;;;;;;0.52;0.20;;;19.30;99.90;;;;;;5018404;28;20042;-83
2023/07/26 10:29:22;;;;;;;0.38;0.20;;;19.50;99.90;;;;;;5035543;28;20046;-83
2023/07/26 10:32:03;;;;;;;1.27;0.50;;;19.80;99.90;;;;;;5002687;28;20067;-83
2023/07/26 10:34:29;;;;;;;0.30;0.10;;;20.00;99.90;;;;;;5018167;28;20070;-83
2023/07/26 10:36:54;;;;;;;0.60;0.30;;;20.00;99.90;;;;;;5016078;28;20056;-83
2023/07/26 10:39:33;;;;;;;0.98;0.20;;;19.80;99.90;;;;;;5014565;28;20083;-83
2023/07/26 10:41:59;;;;;;;0.08;0.08;;;19.50;99.90;;;;;;4997087;28;20398;-83
2023/07/26 10:44:25;;;;;;;0.55;0.20;;;19.40;99.90;;;;;;4998867;28;20048;-83
2023/07/26 10:47:03;;;;;;;0.20;0.10;;;19.40;99.90;;;;;;5007556;28;20045;-83
2023/07/26 10:49:30;;;;;;;0.17;0.10;;;19.30;99.90;;;;;;4998144;28;20030;-83
2023/07/26 10:52:00;;;;;;;0.13;0.00;;;19.30;99.90;;;;;;4998833;28;20061;-83
2023/07/26 10:54:47;;;;;;;0.20;0.17;;;19.30;99.90;;;;;;4998733;28;20121;-83
2023/07/26 10:57:22;;;;;;;0.30;0.13;;;19.10;99.90;;;;;;5012350;28;20053;-83
2023/07/26 11:00:14;;;;;;;0.43;0.20;;;19.00;99.90;;;;;;4997133;28;20076;-83
2023/07/26 11:02:46;;;;;;;0.45;0.20;;;18.70;99.90;;;;;;4995891;28;20147;-84
2023/07/26 11:05:21;;;;;;;1.67;0.40;;;18.20;99.90;;;;;;5013970;28;20046;-83
2023/07/26 11:08:02;;;;;;;0.08;0.08;;;17.80;99.90;;;;;;4989364;28;20034;-83
2023/07/26 11:10:34;;;;;;;0.22;0.05;;;17.10;99.90;;;;;;5004667;28;20046;-84
2023/07/26 11:13:13;;;;;;;0.40;0.30;;;16.60;99.90;;;;;;5006996;28;20055;-84
2023/07/26 11:15:41;;;;;;;0.25;0.25;;;16.20;99.90;;;;;;4989298;28;20053;-84
2023/07/26 11:18:08;;;;;;;0.10;0.00;;;16.10;99.90;;;;;;4997241;28;20033;-84
2023/07/26 11:20:52;;;;;;;0.30;0.20;;;16.20;99.90;;;;;;5001421;28;20054;-84
2023/07/26 11:23:25;;;;;;;0.00;0.00;;;16.50;99.90;;;;;;5014432;28;20038;-84
2023/07/26 11:25:53;;;;;;;0.25;0.10;;;17.00;99.90;;;;;;5015064;28;20038;-83
2023/07/26 11:28:20;;;;;;;0.00;0.00;;;17.60;99.90;;;;;;5015977;28;20056;-84
2023/07/26 11:30:49;;;;;;;0.20;0.00;;;18.10;99.90;;;;;;4999802;28;20118;-83
2023/07/26 11:33:35;;;;;;;0.08;0.00;;;18.60;99.90;;;;;;5016269;28;20040;-83
2023/07/26 11:36:04;;;;;;;0.00;0.00;;;19.10;99.90;;;;;;4998346;28;20038;-83
2023/07/26 11:38:30;;;;;;;0.00;0.00;;;19.50;99.90;;;;;;5014526;28;20026;-84
2023/07/26 11:40:58;;;;;;;0.00;0.00;;;20.00;99.90;;;;;;5013730;28;20038;-83
2023/07/26 11:43:28;;;;;;;0.00;0.00;;;20.40;99.90;;;;;;5015210;28;20050;-83
2023/07/26 11:45:55;;;;;;;0.10;0.00;;;20.60;99.90;;;;;;4996685;28;20109;-83
2023/07/26 11:48:22;;;;;;;0.88;0.00;;;20.60;99.90;;;;;;5013375;28;20038;-84
2023/07/26 11:50:52;;;;;;;0.10;0.00;;;20.30;99.90;;;;;;5013455;28;20548;-82
2023/07/26 11:53:18;;;;;;;0.45;0.10;;;20.10;99.90;;;;;;5008031;28;20536;-83
2023/07/26 11:55:44;;;;;;;0.65;0.00;;;19.80;99.90;;;;;;4994881;28;20061;-83
2023/07/26 11:58:11;;;;;;;0.20;0.13;;;19.60;99.90;;;;;;4987563;28;20615;-83
2023/07/26 12:00:41;;;;;;;0.20;0.10;;;19.60;99.90;;;;;;5010833;28;20034;-82
2023/07/26 12:03:07;;;;;;;0.00;0.00;;;19.80;99.90;;;;;;5014218;28;20081;-83
2023/07/26 12:05:33;;;;;;;0.57;0.20;;;20.10;99.90;;;;;;4998683;28;20069;-83
2023/07/26 12:08:03;;;;;;;0.10;0.00;;;20.50;99.90;;;;;;5014661;28;20252;-83
2023/07/26 12:10:34;;;;;;;0.00;0.00;;;20.90;99.90;;;;;;5010509;28;20058;-82
2023/07/26 12:13:08;;;;;;;0.00;0.00;;;21.40;99.90;;;;;;5015841;28;20049;-83
2023/07/26 12:16:10;;;;;;;0.00;0.00;;;21.60;99.90;;;;;;5003804;28;20042;-83
2023/07/26 12:18:36;;;;;;;0.22;0.05;;;21.80;99.90;;;;;;4971515;28;20109;-83
2023/07/26 12:21:02;;;;;;;0.20;0.00;;;21.80;99.90;;;;;;5008969;28;20058;-82
2023/07/26 12:23:48;;;;;;;0.20;0.10;;;21.80;99.90;;;;;;5011916;28;20108;-83
2023/07/26 12:26:15;;;;;;;0.20;0.13;;;22.00;99.90;;;;;;5010771;28;20052;-83
2023/07/26 12:28:42;;;;;;;1.38;0.10;;;22.10;99.90;;;;;;5013304;28;20052;-83
2023/07/26 12:31:15;;;;;;;0.17;0.10;;;22.10;99.90;;;;;;4996645;28;20126;-83
2023/07/26 12:33:54;;;;;;;0.32;0.10;;;22.10;99.90;;;;;;5012547;28;20042;-83
2023/07/26 12:36:20;;;;;;;0.13;0.00;;;22.10;99.90;;;;;;5000644;28;20042;-83
2023/07/26 12:38:46;;;;;;;0.55;0.20;;;22.10;99.90;;;;;;5013734;28;20049;-83
2023/07/26 12:41:12;;;;;;;0.15;0.00;;;22.10;99.90;;;;;;5010881;28;20042;-82
2023/07/26 12:43:38;;;;;;;0.00;0.00;;;22.10;99.90;;;;;;5011696;28;20054;-83
2023/07/26 12:46:04;;;;;;;0.25;0.10;;;22.20;99.90;;;;;;4994816;28;20046;-82
2023/07/26 12:48:30;;;;;;;0.10;0.00;;;22.40;99.90;;;;;;5015878;28;20034;-83
2023/07/26 12:50:56;;;;;;;0.30;0.20;;;22.30;99.90;;;;;;5009953;28;20046;-83